Marion Reef, Australia
Current Conditions -  °F | °C
As of 5:00 PM on Saturday 25 Oct 2014 (Local Time) from YBHM Reporting Station
Scattered Clouds Scattered Clouds  
Wind Chill: 75°   Ceiling: Unl
Heat Index: 75°   Visibility: 6mi
Dew Point: 64°   Wind: 15mph
Humidity: 69%   Direction: 130°SE
Pressure: 30.03"   Gusts: NA
Location:  19.08°S, 152.38°E
Report Text: YBHM 250700Z AUTO 13013KT 9999 // SCT030 24/18 Q1017
Loading
Personal Weather Stations






























Interactive Weather Map
Tropical Storm Tracking
New forecast layout! Learn more

10-Day Weather Forecast

Advertisements
Track Severe Weather on mobile